シャージャラル国際空港(ダッカ)の過去48時間の天気

シャージャラル国際空港(ダッカ) (Kurmitola, Dia)

現在時刻: 10/19 21:41 +06 (10/19 15:41 UTC) 以下の時間は現地時間です。

過去48時間のMETAR気象情報
時間 風向 風速(m/s) 視程 気温(℃) 湿度(%) 気圧(hPa) 天気現象
19 21:30 3 4000m 27 79 1012 煙霧
19 21:00 南南東 3 3500m 28 79 1012 煙霧
19 20:30 4 3500m 28 79 1011 煙霧
19 20:00 3 3500m 27 84 1011 霧雨
19 19:30 3 3500m 27 84 1011 霧雨
19 19:00 4 3500m 27 84 1011 霧雨
19 18:30 4 3500m 28 84 1010 煙霧
19 18:00 5 3500m 28 84 1010 煙霧
19 17:30 5 3500m 28 84 1010 煙霧
19 17:00 5 3500m 28 84 1010 煙霧
19 16:30 5 3500m 28 84 1009 煙霧
19 16:00 5 3500m 28 79 1009 煙霧
19 15:30 南南東 5 3500m 28 79 1009 煙霧
19 15:00 5 3500m 28 79 1009 煙霧
19 14:30 4 3500m 28 79 1009 煙霧
19 14:00 南南東 3 3500m 27 79 1009 煙霧
19 13:30 3 3500m 27 79 1010 煙霧
19 13:00 3 3500m 27 79 1010 煙霧
19 12:30 2 3500m 27 79 1011 煙霧
19 12:00 3 3500m 27 84 1012 煙霧
19 11:30 4 3200m 27 84 1012 霧雨
19 11:00 5 2500m 27 89 1012 雷雨
19 10:30 南南東 3 3500m 29 79 1012 煙霧
19 10:00 南東 4 3500m 29 79 1012 煙霧
19 09:30 南東 4 3500m 29 79 1012 煙霧
19 09:00 南東 4 3200m 28 84 1012 煙霧
19 08:30 東南東 4 3200m 28 84 1012 煙霧
19 08:00 南南東 4 2800m 27 94 1012 霧雨
19 07:30 南東 4 2500m 26 94 1011
19 07:00 南東 3 2500m 26 94 1011
19 06:30 南東 4 2500m 26 94 1011
19 06:00 南東 4 2500m 26 94 1010
19 05:30 南東 4 2500m 26 94 1010
19 05:00 南南東 5 2500m 26 94 1009
19 04:30 南東 5 2500m 26 94 1009
19 04:00 南東 6 2500m 26 94 1009
19 03:30 南東 6 2500m 25 94 1009
19 03:00 6 2500m 25 94 1010
19 02:30 南東 7 2500m 25 89 1010
19 02:00 4 3200m 26 89 1010
19 01:30 東南東 4 3500m 26 84 1010 煙霧
19 01:00 3 3500m 26 84 1010 煙霧
19 00:30 南南東 4 3500m 26 84 1010 煙霧
19 00:00 4 3500m 27 84 1011 煙霧
18 23:30 東南東 5 3500m 27 79 1011 煙霧
18 23:00 東南東 5 3500m 27 79 1011 煙霧
18 22:30 4 3500m 27 79 1011 煙霧
18 22:00 南東 5 3500m 27 79 1011 煙霧
18 21:30 南東 3 3500m 27 79 1010 煙霧
18 21:00 南南東 5 3500m 27 79 1010 煙霧
18 20:30 南東 4 3500m 28 74 1010 煙霧
18 20:00 南東 5 3500m 28 74 1009 煙霧
18 19:30 5 3500m 28 79 1009 煙霧
18 19:00 3 3500m 28 79 1008 煙霧
18 18:30 東南東 4 2800m 28 84 1008 霧雨
18 18:00 南東 4 2800m 27 89 1007
18 17:30 南東 5 2800m 27 89 1007
18 17:00 南東 6 2500m 27 84 1007
18 16:30 東南東 5 2500m 28 84 1006
18 16:00 南東 5 4000m 31 75 1006 煙霧
18 15:30 南東 5 4000m 32 71 1006 煙霧
18 15:00 南南東 6 4000m 32 75 1006 煙霧
18 14:30 南南東 6 4000m 31 75 1006 煙霧
18 14:00 南南東 7 3500m 29 79 1006 煙霧
18 13:30 南東 4 3500m 28 84 1007 煙霧
18 13:00 南南東 6 3500m 28 84 1007 煙霧
18 12:30 南東 5 3500m 28 84 1008 煙霧
18 12:00 南南東 8 3200m 28 84 1008
18 11:30 東南東 5 4000m 30 79 1008 煙霧
18 11:00 5 4000m 30 79 1009 煙霧
18 10:30 東南東 5 4000m 30 79 1009 煙霧
18 10:00 3 4000m 30 79 1009 煙霧
18 09:30 南東 5 4000m 30 79 1009 煙霧
18 09:00 南東 5 3500m 29 84 1009 煙霧
18 08:30 南東 3 3500m 29 84 1009 煙霧
18 08:00 南東 3 3500m 29 84 1008 煙霧
18 07:30 東北東 2 3500m 28 89 1008 煙霧
18 07:00 3 3500m 27 89 1008 煙霧
18 06:30 3 3500m 27 89 1007 煙霧
18 06:00 2 3500m 27 89 1007 煙霧
18 05:30 2 3500m 27 89 1006 煙霧
18 05:00 3 3500m 27 89 1006 霧雨
18 04:30 3 3500m 27 89 1006 煙霧
18 04:00 2 3500m 27 89 1006 煙霧
18 03:30 3 3500m 27 89 1006 煙霧
18 03:00 南東 3 3500m 27 89 1006 煙霧
18 02:30 東南東 4 3500m 27 89 1007
18 02:00 3 3500m 27 89 1007 霧雨
18 01:30 東南東 3 3500m 27 89 1007 霧雨
18 01:00 3 3500m 27 89 1008 煙霧
18 00:30 東南東 3 3500m 27 89 1008 霧雨
18 00:00 3 3500m 27 89 1008
17 23:30 南東 4 3500m 27 89 1009
17 23:00 東南東 7 3500m 29 79 1009 煙霧
17 22:30 南南東 5 3500m 29 79 1009 煙霧
17 22:00 南南東 3 3500m 30 75 1008 煙霧
VGHS 191530Z 17006KT 4000 HZ SCT015 BKN100 27/23 Q1012 NOSIG
VGHS 191500Z 16006KT 3500 HZ BKN010 BKN100 28/24 Q1012 TEMPO RA
VGHS 191430Z 17007KT 3500 HZ BKN010 BKN100 28/24 Q1011 TEMPO RA
VGHS 191400Z 17006KT 3500 DZ BKN010 OVC100 27/24 Q1011 TEMPO RA
VGHS 191330Z 17006KT 3500 DZ BKN010 OVC100 27/24 Q1011 TEMPO RA
VGHS 191300Z 17008KT 3500 DZ BKN010 FEW025CB BKN100 27/24 Q1011 TEMPO TSRA
VGHS 191230Z 18008KT 3500 HZ BKN010 FEW025CB BKN100 28/25 Q1010 TEMPO TSRA
VGHS 191200Z 18010KT 3500 HZ BKN010 FEW025CB BKN100 28/25 Q1010 TEMPO TSRA
VGHS 191130Z 19010KT 3500 HZ BKN010 FEW025CB BKN100 28/25 Q1010 TEMPO TSRA
VGHS 191100Z 18010KT 3500 HZ BKN010 FEW025CB BKN100 28/25 Q1010 TEMPO TSRA
VGHS 191030Z 19010KT 3500 HZ BKN010 FEW025CB BKN100 28/25 Q1009 TEMPO TSRA
VGHS 191000Z 18010KT 3500 HZ BKN010 FEW025CB BKN100 28/24 Q1009 TEMPO TSRA
VGHS 190930Z 16010KT 3500 HZ BKN010 FEW025CB BKN100 28/24 Q1009 TEMPO TSRA
VGHS 190900Z 18010KT 3500 HZ BKN010 FEW025CB BKN100 28/24 Q1009 TEMPO TSRA
VGHS 190830Z 17008KT 3500 HZ BKN010 FEW025CB BKN100 28/24 Q1009 TEMPO TSRA
VGHS 190800Z 16005KT 3500 HZ BKN010 FEW025CB BKN100 27/23 Q1009 TEMPO TSRA
VGHS 190730Z 17006KT 3500 HZ BKN010 FEW025CB BKN100 27/23 Q1010 TEMPO TSRA
VGHS 190700Z 18006KT 3500 HZ BKN010 FEW025CB BKN100 27/23 Q1010 TEMPO TSRA
VGHS 190630Z 18004KT 3500 HZ BKN010 FEW025CB BKN100 27/23 Q1011 TEMPO TSRA
VGHS 190600Z 19005KT 3500 HZ BKN010 FEW025CB BKN100 27/24 Q1012 TEMPO TSRA
VGHS 190530Z 18007KT 3200 DZ BKN009 FEW025CB OVC090 27/24 Q1012 TEMPO TSRA
VGHS 190500Z 17010KT 2500 TSRA BKN009 FEW025CB OVC090 27/25 Q1012 TEMPO TSRA
VGHS 190430Z 15006KT 3500 HZ BKN010 FEW025CB BKN100 29/25 Q1012 TEMPO TSRA
VGHS 190400Z 14008KT 3500 HZ BKN010 FEW025CB BKN100 29/25 Q1012 TEMPO TSRA
VGHS 190330Z 14007KT 3500 HZ BKN010 BKN100 29/25 Q1012 TEMPO RA
VGHS 190300Z 13007KT 3200 HZ BKN010 BKN100 28/25 Q1012 TEMPO RA
VGHS 190230Z 12007KT 3200 HZ BKN010 BKN100 28/25 Q1012 TEMPO RA
VGHS 190200Z 15007KT 2800 DZ BKN010 BKN100 27/26 Q1012 TEMPO RA
VGHS 190130Z 13007KT 2500 RA BKN009 FEW025CB OVC090 26/25 Q1011 TEMPO TSRA
VGHS 190100Z 13006KT 2500 RA BKN009 FEW025CB OVC090 26/25 Q1011 TEMPO TSRA
VGHS 190030Z 13008KT 2500 RA BKN009 FEW025CB OVC090 26/25 Q1011 TEMPO TSRA
VGHS 190000Z 13008KT 2500 RA BKN009 FEW025CB OVC090 26/25 Q1010 TEMPO TSRA
VGHS 182330Z 13008KT 2500 RA BKN008 FEW025CB OVC090 26/25 Q1010 TEMPO TSRA
VGHS 182300Z 16010KT 2500 RA BKN008 FEW025CB OVC090 26/25 Q1009 TEMPO TSRA
VGHS 182230Z 13010KT 2500 RA BKN008 FEW025CB OVC090 26/25 Q1009 TEMPO TSRA
VGHS 182200Z 14012KT 2500 RA BKN008 FEW025CB OVC090 26/25 Q1009 TEMPO TSRA
VGHS 182130Z 13012KT 2500 RA BKN008 FEW025CB OVC090 25/24 Q1009 TEMPO TSRA
VGHS 182100Z 10012KT 2500 RA BKN008 FEW025CB OVC090 25/24 Q1010 TEMPO TSRA
VGHS 182030Z 13014KT 2500 RA BKN010 FEW025CB BKN100 25/23 Q1010 TEMPO TSRA
VGHS 182000Z 10008KT 3200 RA BKN010 FEW025CB BKN100 26/24 Q1010 TEMPO TSRA
VGHS 181930Z 12008KT 3500 HZ SCT010 FEW025CB BKN100 26/23 Q1010 TEMPO TSRA
VGHS 181900Z 17006KT 3500 HZ SCT010 BKN100 26/23 Q1010 NOSIG
VGHS 181830Z 15008KT 3500 HZ SCT012 BKN100 26/23 Q1010 NOSIG
VGHS 181800Z 10008KT 3500 HZ SCT012 BKN100 27/24 Q1011 NOSIG
VGHS 181730Z 11010KT 3500 HZ SCT012 BKN100 27/23 Q1011 NOSIG
VGHS 181700Z 11010KT 3500 HZ SCT012 BKN100 27/23 Q1011 NOSIG
VGHS 181630Z 10008KT 3500 HZ FEW015 SCT100 27/23 Q1011 NOSIG
VGHS 181600Z 13010KT 3500 HZ FEW015 SCT100 27/23 Q1011 NOSIG
VGHS 181530Z 14005KT 3500 HZ BKN012 BKN100 27/23 Q1010 NOSIG
VGHS 181500Z 15010KT 3500 HZ BKN012 BKN100 27/23 Q1010 TEMPO RA
VGHS 181430Z 14008KT 3500 HZ BKN012 BKN100 28/23 Q1010 TEMPO RA
VGHS 181400Z 13010KT 3500 HZ BKN012 BKN100 28/23 Q1009 TEMPO RA
VGHS 181330Z 09010KT 3500 HZ BKN012 BKN100 28/24 Q1009 TEMPO RA
VGHS 181300Z 09006KT 3500 HZ SCT012 BKN100 28/24 Q1008 TEMPO RA
VGHS 181230Z 12008KT 2800 DZ BKN010 BKN100 28/25 Q1008 TEMPO RA
VGHS 181200Z 13008KT 2800 RA BKN009 FEW025CB OVC090 27/25 Q1007 TEMPO TSRA
VGHS 181130Z 14010KT 2800 RA BKN009 FEW025CB OVC090 27/25 Q1007 TEMPO TSRA
VGHS 181100Z 13012KT 2500 RA BKN009 FEW025CB OVC090 27/24 Q1007 TEMPO TSRA
VGHS 181030Z 12010KT 2500 RA BKN009 FEW025CB OVC090 28/25 Q1006 TEMPO TSRA
VGHS 181000Z 14010KT 4000 HZ SCT012 FEW025CB BKN100 31/26 Q1006 TEMPO TSRA
VGHS 180930Z 13010KT 4000 HZ SCT012 BKN100 32/26 Q1006 NOSIG
VGHS 180900Z 15012KT 4000 HZ SCT012 BKN100 32/27 Q1006 NOSIG
VGHS 180830Z 15012KT 4000 HZ SCT012 BKN100 31/26 Q1006 NOSIG
VGHS 180800Z 16013KT 3500 HZ SCT012 BKN100 29/25 Q1006 NOSIG
VGHS 180730Z 13008KT 3500 HZ BKN010 FEW025CB BKN100 28/25 Q1007 TEMPO TSRA
VGHS 180700Z 15012KT 3500 HZ BKN010 FEW025CB BKN100 28/25 Q1007 TEMPO TSRA
VGHS 180630Z 13010KT 3500 HZ BKN010 FEW025CB BKN100 28/25 Q1008 TEMPO TSRA
VGHS 180600Z 16015KT 3200 RA BKN009 FEW025CB OVC090 28/25 Q1008 TEMPO TSRA
VGHS 180530Z 12010KT 4000 HZ SCT012 FEW025CB BKN100 30/26 Q1008 TEMPO TSRA
VGHS 180500Z 09010KT 4000 HZ SCT025 BKN100 30/26 Q1009 NOSIG
VGHS 180430Z 12010KT 4000 HZ SCT025 BKN100 30/26 Q1009 NOSIG
VGHS 180400Z 09006KT 4000 HZ SCT025 BKN100 30/26 Q1009 NOSIG
VGHS 180330Z 14010KT 4000 HZ FEW025 SCT100 30/26 Q1009 NOSIG
VGHS 180300Z 13010KT 3500 HZ SCT012 BKN100 29/26 Q1009 NOSIG
VGHS 180230Z 14006KT 3500 HZ SCT012 BKN100 29/26 Q1009 NOSIG
VGHS 180200Z 13006KT 3500 HZ SCT012 BKN100 29/26 Q1008 NOSIG
VGHS 180130Z 07003KT 3500 HZ SCT012 BKN100 28/26 Q1008 NOSIG
VGHS 180100Z 09005KT 3500 HZ SCT012 BKN100 27/25 Q1008 NOSIG
VGHS 180030Z 10005KT 3500 HZ SCT012 BKN100 27/25 Q1007 NOSIG
VGHS 180000Z 09003KT 3500 HZ SCT012 BKN100 27/25 Q1007 NOSIG
VGHS 172330Z 09004KT 3500 HZ SCT012 BKN100 27/25 Q1006 TEMPO RA
VGHS 172300Z 09005KT 3500 DZ SCT012 BKN100 27/25 Q1006 TEMPO RA
VGHS 172230Z 10005KT 3500 HZ SCT012 BKN100 27/25 Q1006 NOSIG
VGHS 172200Z 09004KT 3500 HZ BKN010 BKN100 27/25 Q1006 TEMPO RA
VGHS 172130Z 09005KT 3500 HZ BKN010 BKN100 27/25 Q1006 TEMPO RA
VGHS 172100Z 13006KT 3500 HZ BKN010 BKN100 27/25 Q1006 TEMPO RA
VGHS 172030Z 12008KT 3500 RA BKN010 OVC090 27/25 Q1007 TEMPO RA
VGHS 172000Z 09005KT 3500 DZ BKN010 OVC090 27/25 Q1007 TEMPO RA
VGHS 171930Z 11006KT 3500 DZ BKN010 OVC090 27/25 Q1007 TEMPO RA
VGHS 171900Z 10006KT 3500 HZ BKN010 BKN100 27/25 Q1008 TEMPO RA
VGHS 171830Z 12005KT 3500 DZ BKN010 FEW025CB BKN100 27/25 Q1008 TEMPO TSRA
VGHS 171800Z 09006KT 3500 RA BKN010 FEW025CB BKN100 27/25 Q1008 TEMPO TSRA
VGHS 171730Z 13008KT 3500 RA SCT010 FEW025CB BKN100 27/25 Q1009 TEMPO TSRA
VGHS 171700Z 12014KT 3500 HZ SCT010 BKN100 29/25 Q1009 TEMPO RA
VGHS 171630Z 15010KT 3500 HZ SCT010 BKN100 29/25 Q1009 NOSIG
VGHS 171600Z 16006KT 3500 HZ SCT015 BKN100 30/25 Q1008 NOSIG